Sunday, October 21, 2018, 10:04 PM EDT
Back to Local

KIWI, Wiscasset Municipal Airport

Location: Wiscasset, ME, United States Lat: 43.967
Local Time: 10:04 PM EDT ( 2:04 GMT) Lon: -69.717
Time Zone: US/Eastern Elev: 68 ft

Show me the last for .
Show Decoded

2018-10-21 21:53 METAR KIWI 220153Z AUTO 00000KT 10SM CLR 01/M06 A2996 RMK AO2 SLP146 T00061056 =
2018-10-21 20:53 METAR KIWI 220053Z AUTO VRB03KT 10SM CLR 02/M06 A2994 RMK AO2 SLP139 T00171061 =
2018-10-21 19:53 METAR KIWI 212353Z AUTO VRB03KT 10SM CLR 02/M07 A2992 RMK AO2 SLP132 T00221067
                 10072 20022 51037 =
2018-10-21 18:53 METAR KIWI 212253Z AUTO VRB06KT 10SM CLR 03/M07 A2989 RMK AO2 SLP122 T00281067 =
2018-10-21 17:53 METAR KIWI 212153Z AUTO 30007G21KT 260V340 10SM OVC050 04/M06 A2985 RMK AO2
                 SLP109 T00391061 =
2018-10-21 16:53 METAR KIWI 212053Z AUTO 30009G19KT 240V010 10SM BKN050 05/M06 A2981 RMK AO2
                 SLP095 T00501056 53021 =
2018-10-21 15:53 METAR KIWI 211953Z AUTO 33007G17KT 270V030 10SM SCT050 06/M06 A2978 RMK AO2
                 SLP084 T00611056 =
2018-10-21 14:53 METAR KIWI 211853Z AUTO 29013G24KT 10SM BKN049 06/M05 A2976 RMK AO2 SLP079
                 T00611050 =
2018-10-21 13:53 METAR KIWI 211753Z AUTO 31010G22KT 250V350 10SM CLR 07/M04 A2975 RMK AO2 SLP074
                 T00671044 10078 20050 56003 =
2018-10-21 12:53 METAR KIWI 211653Z AUTO 30008G22KT 270V350 10SM FEW046 07/M04 A2975 RMK AO2
                 SLP074 T00721039 =
2018-10-21 11:53 METAR KIWI 211553Z AUTO VRB06KT 10SM CLR 06/M04 A2975 RMK AO2 SLP075 T00611039 =
2018-10-21 10:53 METAR KIWI 211453Z AUTO VRB05KT 10SM SCT120 06/M03 A2976 RMK AO2 SLP077
                 T00561028 51020 =
2018-10-21 09:53 METAR KIWI 211353Z AUTO VRB04KT 10SM OVC110 06/M02 A2975 RMK AO2 SLP075
                 T00561017 =
2018-10-21 07:53 METAR KIWI 211153Z AUTO VRB03KT 10SM BKN110 05/00 A2970 RMK AO2 SLP057 T00500000
                 10056 20011 53031 =
2018-10-21 06:53 METAR KIWI 211053Z AUTO VRB03KT 10SM FEW085 05/00 A2966 RMK AO2 SLP044 T00500000
                 =
2018-10-21 05:53 METAR KIWI 210953Z AUTO 00000KT 10SM BKN080 05/00 A2963 RMK AO2 SLP035 T00500000
                 =
2018-10-21 04:53 METAR KIWI 210853Z AUTO 00000KT 10SM BKN080 02/02 A2961 RMK AO2 SLP025 T00220017
                 53008 =
2018-10-21 03:53 METAR KIWI 210753Z AUTO 00000KT 10SM FEW120 02/02 A2959 RMK AO2 SLP021 T00220017
                 =
2018-10-21 02:53 METAR KIWI 210653Z AUTO 00000KT 10SM CLR 02/01 A2959 RMK AO2 SLP020 T00170011 =
2018-10-21 01:53 METAR KIWI 210553Z AUTO 00000KT 10SM CLR 02/01 A2958 RMK AO2 SLP017 I6000
                 T00170011 10067 20011 53007 =
2018-10-21 00:53 METAR KIWI 210453Z AUTO 00000KT 10SM CLR 02/02 A2957 RMK AO2 SLP014 I1000
                 T00170017 401720017 =
2018-10-20 23:53 METAR KIWI 210353Z AUTO 00000KT 10SM CLR 03/02 A2957 RMK AO2 SLP012 T00280022 =
2018-10-20 22:53 METAR KIWI 210253Z AUTO 00000KT 10SM CLR 04/03 A2956 RMK AO2 SLP010 T00390033
                 53012 =

Support USWX by starting your Amazon purchase here.